Create Custom Reports and Graphics: Custom Report

North Region Latest Observations

Map

10 Minute Data

Winnemucca/Elko Latest Observations

Map

10 Minute Data

South Region Latest Observations

Map

10 Minute Data

Latest Observation

114 Stations

10 Minute Data
as of 9/6/26 10:07 AM PDT
Station Date Time Temp (°F) RH (%) Dew Pt (°F) Wind Spd (mph) Wind Dir (°) Wind Gust (mph) Wind Gst Dir (°) Latest Rain (In) Soil Moist (%) Soil Temp (°F) Daily Rain (In) Daily Min Temp (°F) Daily Max Temp (°F) Daily Max Wind (mph)
Hobart Mills 9/6/26 1000 57.5   1.3 56   2 41.7   2.1 5.4   0.3 SW | 221 12.4   1.4 WSW | 239 0.00 7.4   0.0 59.6   0.7 0.00 44.3   5.2 58.2   1.6 16.3   5.2
Prosser Dam 9/6/26 1000 59.4   2.3 50   1 40.7   1.8 10.2   0.9 S | 189 23.7   5.1 SW | 234 0.00 5.2   0.0 58.0   0.2 0.00 37.4   2.0 59.9   2.2 25.6   7.0
West Incline Village 9/6/26 1000 52.4   3.3 62   4 39.6   1.4 5.8   2.9 S | 180 12.9   4.1 S | 176 0.00 11.6   0.1 55.2   0.1 0.00 45.4   2.0 52.7   3.3 12.9   3.7
Incline Village (Fairview Blvd) 9/6/26 1000 54.0   1.3 61   0 41.0   1.3 3.0   0.3 WSW | 243 11.8   4.2 WSW | 244 0.00 7.6   0.0 67.5   0.1 0.00 48.3   2.0 54.3   1.1 13.7   2.6
Incline Village (Diamond Peak) 9/6/26 1000 53.8   1.3 58   2 39.3   0.3 3.4   1.1 NW | 326 8.7   0.7 NNW | 338 0.00 2.5   0.1 57.0   1.3 0.00 45.2   0.9 54.2   1.2 11.8   1.7
Incline Village (Mill Creek) 9/6/26 1000 57.4   3.2 51   6 39.7   0.1 4.2   1.0 WSW | 258 11.3   2.1 WSW | 250 0.00 2.9   0.1 60.0   0.4 0.00 46.1   0.8 57.7   3.1 14.0   1.5
Incline Village (Lakeshore Blvd) 9/6/26 1000 57.8   2.7 62   1 44.9   2.1 6.1   2.2 SW | 230 12.2   3.5 SSW | 207 0.00 22.8   1.2 55.4   2.3 0.00 41.0   3.0 58.2   2.7 13.4   3.7
Glenbrook 9/6/26 1000 58.9   4.0 55   3 42.6   2.3 5.7   2.2 WSW | 238 11.3   2.2 WSW | 243 0.00 43.6   0.1 58.1   0.1 0.00 51.0   10.9 59.5   4.0 17.0   8.0
Zephyr Cove 9/6/26 1000 59.3   3.7 42   10 36.1   1.9 1.5   0.1 SE | 124 7.5   1.9 E | 100 0.00 2.9   0.1 58.4   1.3 0.00 49.0   4.4 59.8   3.7 12.3   6.7
Kingsbury Grade 9/6/26 1000 58.9   5.2 43   12 36.3   1.6 2.7   1.1 WSW | 243 7.6   1.1 S | 190 0.00 2.3   0.2 61.6   0.8 0.00 42.1   2.8 59.4   5.0 10.9   4.5
South Daggett Pass (Ridge) 9/6/26 1000 54.9   6.9 46   21 34.3   3.3 2.7   1.7 NNW | 338 6.0   1.2 N | 4 0.00 2.2   0.0 60.3   0.4 0.00 44.5   2.6 55.2   6.5 15.0   4.6
Palomino Valley 9/6/26 1000 64.5   5.0 39   10 38.9   1.5 3.0   0.3 N | 360 7.6   0.4 N | 352 0.00 6.5   0.0 71.6   0.0 0.00 40.9   2.1 65.2   5.3 7.6   0.4
East Cold Springs 9/6/26 1000 63.3   7.0 40   13 38.7   0.8 12.8   7.9 SW | 223 27.1   17.5 WSW | 237 0.00 1.5   0.1 67.4   0.8 0.00 47.6   2.2 64.0   7.2 27.1   12.4
Peavine 9/6/26 1000 59.5   6.4 43   13 37.0   0.8 9.4   3.2 S | 184 27.4   9.9 WSW | 247 0.00 4.2   0.1 63.6   1.7 0.00 52.2   7.3 61.0   7.0 27.8   1.1
West Verdi Peak 9/6/26 1100 57.8   6.1 50   14 39.1   0.6 7.3   3.6 SSE | 165 23.6   17.0 SE | 130 0.00 6.3   0.1 63.2   0.5 0.00 48.1   5.1 58.8   5.7 23.6   5.6
West Verdi 9/6/26 1000 63.6   7.0 42   14 40.3   1.0 13.4   9.9 S | 186 32.7   25.2 S | 177 0.00 6.0   0.1 72.6   0.7 0.00 46.0   1.6 64.1   6.6 32.7   24.7
South Verdi 9/6/26 1000 61.6   8.2 44   15 39.6   0.2 19.2   7.0 SW | 223 34.4   18.9 SW | 220 0.00 10.0   0.0 63.8   0.7 0.00 48.6   1.8 61.9   8.1 34.4   15.9
Northwest Reno 9/6/26 1000 59.3   2.8 51   6 41.0   0.2 7.9   3.7 ESE | 115 12.2   5.0 SE | 134 0.00 24.0   0.2 69.8   0.1 0.00 50.3   1.9 59.8   2.9 15.5   2.5
North Lawton 8/28/26 1620 63.8   17.1 74   52 55.4   16.5 1.5   11.6 ESE | 121 5.1   19.0 SE | 124 0.00 - 78.2   0.0 0.05 59.2   7.5 71.9   13.3 20.4   4.6
West Reno (Mogul) 9/6/26 1000 59.5   4.3 48   9 40.1   0.6 4.5   0.4 ENE | 68 8.7   0.1 ENE | 59 0.00 19.4   0.1 75.8   0.5 0.00 49.3   2.0 60.1   4.5 18.9   8.4
Caughlin (Hunter Lake Trail) 9/6/26 1000 58.9   3.8 52   6 41.6   0.6 3.8   1.0 NNE | 13 7.2   0.9 N | 9 0.00 16.1   0.0 69.2   0.6 0.00 49.5   2.9 59.1   3.7 12.8   3.7
ArrowCreek 9/6/26 1000 58.0   2.5 53   5 40.9   0.1 4.8   1.9 NNE | 27 8.9   2.4 NE | 43 0.00 - 32.0   0.0 0.00 48.2   0.8 58.8   2.8 14.9   3.8
Tracy 9/6/26 1000 63.8   1.7 43   4 40.8   0.6 4.7   1.3 ENE | 73 8.7   3.8 ENE | 74 0.00 15.5   0.0 73.7   0.4 0.00 48.2   0.5 64.9   1.8 9.7   2.8
Virginia Highlands 9/6/26 1000 59.6   1.8 43   6 36.9   1.9 9.7   6.6 SSE | 150 16.0   2.2 SSE | 152 0.00 7.8   0.0 71.5   0.3 0.00 47.6   0.1 60.5   1.5 16.0   0.4
Virginia City 9/6/26 1000 58.2   2.6 43   5 36.0   0.3 5.5   2.0 SE | 146 9.7   5.5 SE | 130 0.00 4.6   0.0 70.0   0.4 0.00 48.6   2.6 58.8   2.7 15.4   0.2
Six Mile Canyon 9/6/26 1000 63.6   2.2 40   5 38.9   1.2 4.3   1.2 E | 91 9.1   1.0 E | 98 0.00 11.9   0.1 71.9   0.5 0.00 51.9   2.2 64.3   2.0 11.0   0.6
Mt Rose Highway 9/6/26 1000 54.2   3.5 55   7 38.6   0.3 6.0   2.5 S | 181 17.0   8.4 S | 185 0.00 7.4   0.0 59.0   0.1 0.00 44.7   0.5 54.9   3.7 17.0   6.3
Pleasant Valley 9/6/26 1000 64.4   7.3 40   13 39.4   0.9 5.2   1.4 SSE | 159 14.3   7.3 S | 175 0.00 2.3   0.1 71.6   0.5 0.00 44.2   2.3 66.2   8.5 14.3   4.2
New Washoe City 9/6/26 1000 64.9   7.8 34   18 36.0   4.0 7.0   4.1 SSW | 203 13.9   8.7 WSW | 251 0.00 3.4   0.0 70.0   0.4 0.00 47.3   2.1 65.4   7.6 13.9   3.6
Franktown Creek 9/6/26 1000 65.8   8.5 36   20 38.1   3.4 7.5   7.4 SSW | 204 24.3   22.6 SSW | 206 0.00 6.9   0.0 68.4   0.7 0.00 45.4   0.5 66.1   8.2 24.3   9.2
Musgrove Creek 9/6/26 1000 64.7   8.3 36   21 37.1   4.4 3.6   2.0 E | 93 12.5   7.6 ESE | 110 0.00 10.3   0.1 59.4   0.3 0.00 49.6   0.5 65.0   8.4 13.4   3.1
East Carson 11/23/24 0110 28.6   28.4 - - 4.7   11.0 SW | 220 14.7   10.1 SW | 219 0.02 - 50.9   0.1 0.02 -25.9   79.1 42.9   14.6 16.0   10.7
Kings Canyon 9/6/26 1000 61.6   1.9 43   6 38.7   1.8 4.6   1.6 NNE | 25 8.4   0.4 NE | 36 0.00 4.2   0.0 65.7   1.1 0.00 49.5   5.9 62.4   1.7 15.5   7.4
Carson City (Voltaire Canyon) 9/6/26 1000 62.5   2.4 41   7 38.2   1.6 6.1   0.9 NNE | 31 9.6   0.6 NNE | 27 0.00 2.8   0.0 75.7   0.2 0.00 54.0   2.9 63.2   2.6 15.5   3.5
Jacks Valley 9/6/26 1000 63.8   2.9 37   7 36.9   1.7 7.1   3.4 E | 90 10.9   3.6 E | 82 0.00 4.5   0.1 70.4   1.8 0.00 50.8   3.4 64.8   3.5 15.6   4.6
Genoa 9/6/26 1000 67.2   4.0 36   9 39.2   2.0 0.7   0.3 ESE | 106 4.1   0.2 ESE | 107 0.00 2.2   0.0 63.0   1.7 0.00 53.8   8.4 67.7   4.0 10.6   0.6
South Genoa (Walleys Hot Springs) 9/6/26 1000 67.6   4.9 35   11 39.3   2.4 2.2   0.3 NNE | 33 5.7   0.1 NNE | 18 0.00 4.7   0.2 72.3   0.2 0.00 47.9   5.2 68.0   3.6 16.9   7.3
SW Gardnerville (HWY 88) 9/6/26 1000 68.7   8.1 31   19 36.6   5.2 10.4   8.5 SSW | 200 22.2   16.1 SSE | 168 0.00 2.7   0.0 66.9   0.5 0.00 50.4   6.4 69.3   8.1 22.7   9.2
Sheridan 9/6/26 1000 67.0   6.3 35   14 38.5   2.8 5.6   0.4 N | 350 10.6   1.7 NW | 325 0.00 1.0   0.0 69.0   0.9 0.00 52.2   5.5 68.2   6.7 14.4   4.6
Ruhenstroth 9/6/26 1000 68.4   6.9 26   17 31.8   6.9 12.0   8.6 SSW | 201 24.6   16.3 SW | 219 0.00 6.6   0.0 67.0   0.3 0.00 51.1   0.8 68.7   6.6 24.6   9.7
Double Spring 9/6/26 1000 62.4   5.6 34   16 33.3   5.0 3.1   5.3 SSE | 156 5.7   6.8 SSE | 147 0.00 24.6   0.1 66.4   1.2 0.00 44.8   7.1 63.4   5.9 16.2   2.2
North Topaz Lake 9/6/26 1000 63.6   5.4 36   13 36.4   2.9 5.2   2.2 SSE | 149 10.2   1.5 SSE | 160 0.00 7.5   0.1 70.0   0.9 0.00 53.2   3.1 64.1   5.0 18.0   9.3
Wild Oat Mountain 9/6/26 1000 60.0   3.9 42   10 36.8   2.0 6.3   3.7 ENE | 67 11.7   6.1 ENE | 77 0.00 5.5   0.0 65.4   0.7 0.00 49.7   0.5 60.5   3.6 15.3   8.7
Smith Valley 9/6/26 1000 62.2   2.0 44   4 40.2   0.2 2.7   0.6 NE | 35 6.1   0.7 NNE | 17 0.00 2.7   0.0 72.6   0.3 0.00 47.7   2.8 62.6   1.5 10.8   2.0
Pine Grove Mountain 9/6/26 1000 53.3   5.4 44   18 31.9   3.9 4.1   2.0 WNW | 291 8.7   3.2 WNW | 290 0.00 6.3   0.0 60.0   0.3 0.00 48.3   7.5 54.5   6.2 10.2   0.6
Paradise Hill 9/6/26 1000 65.4   3.8 37   1 38.2   2.4 11.4   9.5 W | 276 17.9   12.9 WNW | 287 0.00 9.6   0.0 69.5   1.7 0.00 49.4   1.4 66.8   4.6 20.9   12.0
Winnemucca 9/6/26 1000 63.8   2.2 40   2 39.3   3.6 6.2   3.9 SSW | 202 11.9   6.6 SSW | 195 0.00 5.6   0.0 72.2   1.0 0.00 52.3   2.0 64.4   2.2 13.0   3.8
NE Elko 9/6/26 1000 64.5   3.3 31   15 32.8   7.0 2.0   0.7 WSW | 242 6.0   1.0 SW | 226 0.00 5.5   0.0 67.2   0.4 0.00 39.8   0.6 65.5   3.6 7.0   0.0
North Elko 9/6/26 1000 64.4   4.2 32   14 34.1   5.6 3.6   0.5 SSW | 193 7.2   5.0 SSW | 206 0.00 24.5   0.1 70.0   0.2 0.00 49.2   0.4 65.2   4.1 9.4   2.7
South Elko 9/6/26 1000 63.6   3.8 33   15 33.7   6.4 6.0   1.5 W | 275 12.2   3.0 WNW | 287 0.00 13.4   0.1 64.6   0.2 0.00 52.8   4.8 65.0   27.4 12.2   3.0
Lamoille 9/6/26 1000 65.3   7.5 30   22 33.1   7.4 6.7   2.6 NE | 42 11.4   2.0 NE | 45 0.00 6.0   0.1 65.7   0.2 0.00 46.5   2.4 66.3   8.0 11.4   2.0
Reid Gardner Sub 9/6/26 1000 87.4   1.5 31   11 52.9   12.5 1.9   0.2 E | 90 5.3   0.0 ENE | 67 0.00 23.2   0.5 86.4   1.2 0.00 74.6   13.9 87.9   1.1 7.9   0.7
Corn Creek 9/6/26 1000 81.4   2.9 39   13 54.1   12.9 21.5   11.0 ENE | 72 31.8   16.4 ENE | 67 0.00 3.0   0.0 85.3   1.9 0.00 73.9   4.6 81.8   2.2 31.8   4.6
Lucky Strike 9/6/26 1000 72.7   2.9 45   18 50.1   15.7 8.1   1.0 WSW | 249 15.0   0.0 W | 261 0.00 3.0   0.1 77.6   0.8 0.00 66.9   5.2 72.8   1.8 20.6   5.6
Lower Angel Peak 9/6/26 1000 67.2   0.0 54   30 50.2   20.7 6.6   0.4 SSE | 156 11.4   2.0 SSE | 154 0.00 3.1   0.0 71.5   0.4 0.00 58.6   4.7 69.3   0.5 16.0   3.0
Angel Peak 9/6/26 1000 54.5   7.4 74   58 46.5   31.5 12.0   3.6 S | 179 16.4   3.2 S | 178 0.00 2.4   0.1 63.4   1.5 0.00 54.3   1.6 59.0   4.4 32.9   4.2
Upper Kyle Canyon 9/6/26 1000 58.4   7.5 69   52 48.2   28.3 5.6   0.4 ESE | 110 13.5   5.3 E | 90 0.00 7.7   0.1 74.2   0.3 0.00 58.3   0.7 61.6   5.0 24.3   9.8
Mt Charleston 9/6/26 1000 59.1   7.0 69   51 48.8   28.2 5.8   0.6 SE | 131 17.0   1.7 SSE | 155 0.00 13.1   0.0 67.4   0.7 0.00 58.9   1.6 62.2   4.8 27.3   1.2
Mid Kyle Canyon 9/6/26 1000 66.6   7.3 57   43 50.7   30.4 8.9   1.7 W | 266 17.6   2.9 WNW | 286 0.00 5.8   0.1 73.2   0.6 0.00 65.2   6.0 69.0   5.4 22.6   6.0
Blue Diamond 9/6/26 1000 75.2   7.0 55   38 58.0   24.8 11.6   6.3 WNW | 303 21.6   8.2 WNW | 289 0.00 1.2   0.0 84.3   1.3 0.00 74.9   6.7 80.0   3.3 21.9   4.2
Artesian Sub 9/6/26 1000 83.2   5.0 46   28 60.1   20.8 10.8   3.6 SE | 135 20.7   8.7 SE | 142 0.00 11.7   0.0 92.1   0.1 0.00 82.6   5.1 88.2   0.6 20.7   5.5
North Henderson 9/6/26 1000 83.3   4.5 47   28 61.1   20.9 8.5   4.6 S | 182 14.7   7.5 SSE | 163 0.00 10.5   0.1 95.6   0.2 0.00 83.1   5.5 89.6   1.4 22.0   5.1
Sandy Valley 9/6/26 1000 71.2   7.8 75   49 63.0   21.4 1.5   0.5 SE | 131 2.5   5.2 ESE | 115 0.02 7.3   0.1 85.5   2.2 0.04 71.0   2.8 80.2   0.9 10.3   1.0
Searchlight 9/6/26 1010 73.1   7.6 65   44 60.8   23.2 4.2   5.2 S | 184 7.8   7.0 SW | 217 0.00 5.6   0.0 82.9   2.4 0.00 71.2   5.5 76.7   4.5 11.3   3.5
Laughlin 9/6/26 1000 89.1   2.2 47   29 66.3   23.9 0.9   3.8 SSE | 153 3.4   4.3 S | 174 0.00 4.3   0.1 97.5   1.0 0.00 86.7   7.3 92.9   1.3 9.9   2.1
31Mission Hills 9/6/26 1000 78.7   4.2 48   28 57.1   20.6 3.5   2.1 S | 189 7.7   2.5 SSE | 161 0.00 6.1   0.1 85.7   3.1 0.00 78.4   4.3 83.6   0.4 13.7   0.0
32 Enterprise Sierra Cliffs 9/6/26 1000 73.3   9.1 59   44 58.3   27.8 22.4   10.5 SSW | 199 29.3   11.7 SSW | 199 0.00 1.3   0.1 82.5   3.4 0.00 72.8   4.6 81.3   1.6 31.0   8.7
29 Calico Basin 9/6/26 1000 75.6   5.8 46   32 53.2   26.5 14.0   2.3 SW | 222 21.2   4.1 SW | 236 0.00 2.3   0.0 83.2   1.9 0.00 75.5   6.6 79.1   2.8 25.7   5.7
28 Indian Springs 9/6/26 1000 81.1   3.0 30   8 47.1   11.0 2.2   0.1 ENE | 68 4.5   1.6 ENE | 60 0.00 4.3   0.0 82.8   1.5 0.00 71.2   7.8 81.4   3.1 14.5   4.4
30 Jean 9/6/26 1000 72.0   7.8 67   47 60.4   24.9 5.4   3.1 SW | 226 8.6   4.1 SW | 234 0.00 4.8   0.0 81.9   1.5 0.01 71.7   5.8 80.8   0.7 16.6   3.0
VC Highlands NW 9/6/26 1000 59.0   4.6 38   14 33.4   3.8 3.6   0.8 SW | 236 9.6   2.7 NW | 321 0.00 1.5   0.0 60.6   0.9 0.00 49.5   5.0 59.8   4.5 11.3   0.4
Glenbrook-Spooner Summit 9/6/26 0750 51.5   5.8 49   18 33.0   2.5 7.7   6.3 W | 261 22.2   17.1 WSW | 242 0.00 7.7   0.0 61.4   0.3 0.00 40.0   2.8 51.7   5.2 22.2   11.3
Hobo Hot Springs 9/6/26 1000 66.8   3.6 31   9 35.4   3.2 4.1   2.2 NE | 43 6.6   0.6 ENE | 67 0.00 1.0   0.1 66.0   0.8 0.00 43.2   1.6 67.2   3.4 11.0   3.0
Jack Valley Ranch 2 9/6/26 1000 65.6   3.9 33   8 36.0   1.8 3.2   0.5 ESE | 119 7.2   2.0 SSE | 152 0.00 2.1   0.0 71.1   0.7 0.00 50.4   2.0 66.6   4.5 12.8   0.2
Genoa North 2 9/6/26 1000 66.1   4.5 31   11 34.7   3.7 3.2   0.7 SE | 135 7.8   0.2 SSE | 153 0.00 0.8   0.0 69.2   2.0 0.00 54.8   10.1 66.4   4.1 11.8   3.5
Mottsville 2 9/6/26 1000 66.7   5.6 32   12 36.1   3.2 4.4   0.3 NNE | 14 8.4   1.2 NNE | 32 0.00 1.4   0.1 69.2   1.3 0.00 49.0   5.4 67.1   5.3 14.9   2.7
Kingsbury Village 3 9/6/26 1000 54.0   6.2 44   18 32.7   2.9 3.6   2.5 S | 191 11.4   7.1 S | 180 0.00 3.1   0.0 55.8   1.2 0.00 42.6   4.1 54.6   6.7 14.0   7.3
Kingsbury-Benjamin Dr 2 9/6/26 1000 55.9   6.7 42   19 32.9   3.4 2.6   2.1 W | 264 11.3   7.5 SSW | 197 0.00 2.7   0.0 61.0   1.1 0.00 44.8   3.8 56.3   7.0 13.8   3.7
Smith Valley-Wellington 9/6/26 1000 61.8   0.6 42   2 38.8   0.4 4.5   1.5 E | 86 8.7   1.6 ENE | 64 0.00 3.4   0.0 76.6   0.2 0.00 43.3   0.2 62.6   0.9 9.7   1.5
Sheridan South 2 9/6/26 1000 68.7   7.8 25   22 31.5   9.1 10.8   6.8 SSE | 156 21.2   14.2 SSE | 154 0.00 0.4   0.0 68.1   1.8 0.00 52.6   5.3 69.1   7.3 22.2   2.9
Silver Springs 9/6/26 1000 64.5   0.7 40   0 39.9   0.4 5.7   2.5 ESE | 110 9.4   1.6 SE | 127 0.00 4.8   0.0 74.4   1.3 0.00 48.3   0.5 65.3   1.1 16.5   0.4
Fernley 9/6/26 1000 64.8   4.0 40   3 40.1   1.5 4.4   2.4 E | 84 9.8   4.2 E | 82 0.00 3.0   0.0 68.4   0.9 0.00 50.1   2.2 65.6   3.9 9.8   1.7
Spanish Springs 9/6/26 1000 62.9   3.1 42   4 39.8   0.3 1.6   0.3 NW | 320 6.2   1.6 N | 6 0.00 9.9   0.1 70.9   1.0 0.00 45.1   2.8 63.4   3.1 7.8   1.4
Suttcliffe South 2 9/6/26 1000 64.8   4.7 43   8 41.5   0.4 5.2   0.6 ESE | 120 12.9   0.7 E | 89 0.00 3.9   0.0 64.4   1.1 0.00 43.0   3.7 65.6   4.8 12.9   0.7
Lemmon Valley North 9/6/26 1000 63.6   6.2 38   11 37.8   0.6 6.3   4.1 SE | 140 17.6   11.4 SSE | 147 0.00 2.0   0.0 67.8   0.1 0.00 40.6   5.8 64.3   6.0 17.6   5.8
Lemmon Valley NW 3 9/6/26 1000 63.7   5.3 37   10 36.9   1.4 10.9   4.8 SSE | 157 19.8   10.3 S | 170 0.00 1.1   0.0 66.0   1.1 0.00 39.6   0.0 64.3   5.3 19.8   7.7
VC Highlands North 9/6/26 1000 60.0   3.5 37   8 33.4   1.7 6.4   0.3 S | 179 14.9   4.3 S | 186 0.00 4.3   0.1 63.2   0.6 0.00 38.7   0.7 61.0   3.6 14.9   3.8
Upper Voltaire Cyn 9/6/26 1000 62.5   3.2 34   8 33.9   2.4 6.1   0.7 ESE | 118 11.9   1.1 ESE | 112 0.00 1.2   0.1 65.1   2.1 0.00 54.3   5.4 63.1   3.4 14.4   2.9
Yerington NW 9/6/26 1000 63.2   2.2 43   2 40.6   0.6 3.9   0.0 ENE | 71 7.5   0.4 ENE | 57 0.00 7.1   0.0 70.2   0.7 0.00 44.5   0.7 63.4   1.8 8.1   0.6
Spanish Springs SW 9/6/26 1000 61.0   2.2 45   2 39.8   0.9 4.4   1.3 ENE | 59 7.3   0.9 NNE | 16 0.00 1.3   0.0 67.4   0.9 0.00 45.9   1.3 61.5   2.0 12.8   5.2
Cosgrave 2 8/27/26 0750 62.9   4.1 34   3 33.8   1.4 2.6   0.5 WSW | 246 4.1   1.0 W | 267 0.00 3.8   0.1 77.4   2.9 0.00 62.7   3.3 77.4   3.5 11.2   3.9
Winnemucca-Grass Valley 2 9/6/26 1000 64.2   3.1 40   1 39.1   3.5 5.0   0.6 NNW | 333 11.6   3.5 N | 0 0.00 7.5   0.0 61.7   0.9 0.00 38.1   2.2 64.9   3.4 11.6   3.5
Winnemucca-Dutch Flat Rd 9/6/26 1000 65.8   5.1 34   2 36.6   3.0 8.1   4.7 WSW | 249 16.3   9.4 SW | 223 0.00 6.0   0.0 70.2   0.1 0.00 52.6   2.9 66.2   5.2 16.3   2.7
Paradise Valley 2 9/6/26 1000 63.9   4.3 36   4 36.5   0.9 2.8   0.6 ESE | 106 7.2   1.2 E | 96 0.00 12.2   0.0 68.3   0.3 0.00 44.0   1.1 64.5   4.8 7.8   1.0
Golconda 2 9/6/26 1000 65.4   3.7 35   4 37.1   0.7 9.6   2.7 NNW | 333 16.6   5.0 NW | 308 0.00 1.7   0.0 68.8   1.0 0.00 48.0   2.1 66.1   3.2 20.9   3.2
Battle Mountain - South 9/6/26 1000 64.4   1.9 35   2 36.5   0.4 3.8   2.0 NW | 315 9.6   2.1 NW | 309 0.00 9.3   0.0 71.1   0.5 0.00 46.6   2.0 64.7   1.5 10.3   1.4
Geiger Summit 9/6/26 1000 56.2   2.3 100   0 56.2   2.3 7.7   1.7 SSW | 192 21.1   6.4 SW | 224 0.00 5.8   0.0 56.7   0.4 0.00 46.4   4.4 57.1   2.6 21.1   6.4
Combs Canyon 3 9/6/26 1000 63.6   2.5 34   9 34.9   3.7 5.2   2.1 ESE | 114 9.6   3.5 SE | 137 0.00 0.9   0.0 69.2   0.2 0.00 49.9   2.3 64.2   2.5 12.4   3.8
Clear Creek 9/6/26 1000 64.4   3.8 32   9 33.9   2.6 4.2   0.5 ESE | 104 12.0   2.7 ESE | 102 0.00 3.4   0.0 65.7   1.7 0.00 46.9   0.0 64.9   3.7 12.0   0.7
Eastlake 2 9/6/26 1000 63.2   5.3 35   18 34.8   6.0 2.2   1.8 SSE | 160 8.2   2.0 SE | 144 0.00 3.4   0.0 69.5   0.0 0.00 42.7   0.8 64.0   5.6 15.5   3.2
Lovelock-Colado 2 9/6/26 1000 66.0   2.5 37   1 38.7   2.9 6.0   3.7 NNE | 26 10.6   3.8 NNE | 29 0.00 - 71.8   1.1 0.00 49.8   4.8 66.2   2.2 13.8   2.7
Spanish Springs NW 9/6/26 1000 62.2   2.7 42   5 38.7   0.6 1.8   0.4 ENE | 67 4.0   0.6 E | 92 0.00 12.0   0.0 65.3   1.2 0.00 46.0   0.2 62.6   2.0 13.4   7.4
Battle Mountain NW 9/6/26 1000 65.1   2.8 34   2 36.4   1.0 4.1   0.4 N | 350 8.3   2.0 NW | 307 0.00 8.4   0.0 72.0   1.3 0.00 49.5   2.3 65.7   2.7 10.2   0.9
Austin 2 9/6/26 0900 64.9   3.4 23   14 25.7   9.1 7.9   4.1 NNW | 335 13.9   9.6 WNW | 291 0.00 2.3   0.0 61.0   0.9 0.00 34.6   2.9 65.4   3.1 13.9   9.6
Elko-Osino 9/6/26 1000 64.8   2.9 31   12 33.1   5.7 3.6   0.3 SSW | 195 7.5   0.4 SW | 216 0.00 1.3   0.0 70.6   0.2 0.00 39.2   0.0 65.7   3.3 9.2   1.4
Elko-Bill Fishpond 2 9/6/26 1000 65.2   6.4 26   21 29.7   9.1 2.3   0.6 NNW | 331 7.3   0.9 NNW | 327 0.00 3.4   0.0 64.7   0.1 0.00 41.9   0.6 65.6   6.1 11.7   3.5
Spring Creek SE 2 9/6/26 1000 70.0   10.5 22   23 29.4   8.9 15.2   10.6 SW | 223 23.0   14.9 WSW | 246 0.00 0.2   0.0 64.5   0.2 0.00 45.7   4.0 70.5   10.3 23.0   9.8
Spring Creek NW 9/6/26 1000 69.0   8.8 22   21 29.1   8.7 10.6   7.0 SSW | 203 18.3   10.2 SSW | 206 0.00 2.1   0.0 68.4   0.3 0.00 49.7   2.0 69.6   9.0 18.3   8.6
Elko-Moleen 9/6/26 1000 65.9   5.2 31   14 34.4   4.9 3.9   0.4 SW | 216 7.3   0.5 WSW | 243 0.00 6.1   0.0 73.1   0.1 0.00 39.7   1.5 67.0   5.5 8.4   0.6
Elko-West 9/6/26 1000 65.1   3.6 32   12 34.2   5.1 3.5   0.1 SW | 229 7.8   1.9 SW | 230 0.00 32.7   0.1 64.3   0.4 0.00 36.8   2.2 65.6   3.5 7.8   2.4
Elko-Adobe Creek 9/6/26 1000 62.5   5.3 29   19 29.4   8.1 13.0   7.3 SW | 232 22.5   13.7 SW | 221 0.00 18.3   0.0 66.5   0.1 0.00 48.4   4.6 63.0   5.6 22.5   12.8
Tuscarora SW 9/6/26 1000 60.0   2.1 41   9 36.0   3.4 4.9   1.7 NE | 51 9.2   2.6 NE | 53 0.00 6.6   0.0 67.8   0.8 0.00 38.9   3.0 60.5   2.0 9.2   2.4
Elko-Monument Peak 9/6/26 1000 64.4   4.8 25   19 28.2   9.6 12.5   10.3 SW | 230 19.1   9.4 SW | 235 0.00 4.0   0.0 65.6   0.0 0.00 31.4   0.0 64.9   4.5 19.1   9.4
Wild Horse 9/6/26 1000 63.6   4.6 32   14 32.9   5.1 7.0   5.3 SSW | 196 14.4   9.8 SSE | 162 0.00 4.4   0.0 62.6   0.8 0.00 34.0   0.1 64.3   4.8 14.4   7.6
Max     89.1 100 66.3 22.4 - 34.4 - 0.02 43.6 97.5 0.04 86.7 92.9 34.4
Avg     64.4 42 40.1 6.3 - 12.8 - 0.00 6.9 68.9 - - - -
Min     52.4 22 25.7 0.7 - 2.5 - 0.00 0.2 32.0 0.00 31.4 52.7 7.0

Latest Observation

114 Stations

Daily Data
as of 9/6/26 10:07 AM PDT
Station Date Daily Max Temp (°F) Daily Min Temp (°F) Daily Max RH (%) Daily Min RH (%) Wind Spd (mph) Wind Dir (°) Daily Max Wind (mph) Max Wind Dir (°) Time of Max Wind Daily Rain (In) Weekly Precip (In) Season Precip (In) Soil Moist (%) Fuel Temp (°F) Fuel Moisture (%) MinBV Day (V)
Hobart Mills 9/5/26 62.7   5.3 39.0   4.0 92   3 46   14 1.9   0.6 SW | 236 20.4   3.6 SW | 225 1502 0.00 0.10 - 7.4   0.0 51.2   1.9 19   13 12.4   0.0
Prosser Dam 9/5/26 63.2   3.2 35.3   8.3 97   4 40   12 4.2   0.2 SW | 223 20.6   0.4 WSW | 240 1222 0.00 0.16 - 5.2   0.0 52.2   0.8 19   11 12.5   0.0
West Incline Village 9/5/26 58.2   7.4 43.4   0.1 80   18 50   18 2.7   0.5 SSE | 157 18.6   3.0 W | 277 1530 0.00 0.07 - 11.6   0.1 53.6   7.5 16   5 12.4   0.0
Incline Village (Fairview Blvd) 9/5/26 60.6   2.6 46.3   0.7 75   18 46   11 1.8   0.3 SW | 233 14.8   3.7 SW | 225 1637 0.00 0.00 - 7.6   0.0 58.1   7.1 10   2 12.5   0.0
Incline Village (Diamond Peak) 9/5/26 58.2   7.3 44.2   0.5 77   16 47   23 1.6   1.6 NW | 305 11.9   1.0 NW | 308 1455 0.00 0.01 - 2.5   0.1 -11.6   0.0 - 12.3   0.0
Incline Village (Mill Creek) 9/5/26 62.1   6.6 45.2   1.7 76   11 44   18 1.9   1.0 WSW | 239 13.9   5.0 NW | 315 1510 0.00 0.00 - 2.9   0.0 -8.8 - 12.4   0.0
Incline Village (Lakeshore Blvd) 9/5/26 60.0   2.9 44.0   2.6 85   2 50   15 2.4   2.5 SW | 233 11.6   5.5 SW | 214 1610 0.00 0.00 - 20.7   2.5 56.3   1.9 12   1 12.4   0.0
Glenbrook 9/5/26 62.4   4.6 40.1   2.5 84   4 42   13 3.9   2.7 SW | 230 19.8   6.6 WSW | 254 1438 0.00 0.00 - 43.5   0.1 51.2   1.3 17   1 12.5   0.1
Zephyr Cove 9/5/26 66.0   5.6 44.6   1.0 75   1 33   14 0.7   0.4 SE | 138 8.7   3.8 SE | 133 1650 0.00 0.00 - 2.9   0.0 57.3   3.8 9   0 12.5   0.0
Kingsbury Grade 9/5/26 64.6   6.5 39.2   1.8 85   2 35   17 1.5   0.3 WNW | 300 16.8   1.6 SW | 234 1356 0.00 0.00 - 2.3   0.0 53.2   2.3 10   0 12.4   0.1
South Daggett Pass (Ridge) 9/5/26 59.3   4.4 41.9   0.8 80   10 41   14 1.6   0.4 W | 280 23.0   4.6 WSW | 254 1545 0.00 0.00 - 2.2   0.0 49.6   2.2 12   1 12.4   0.0
Palomino Valley 9/5/26 74.3   3.5 38.8   8.9 84   2 26   4 5.5   0.9 WNW | 302 24.2   10.4 N | 0 1557 0.00 0.00 - 6.5   0.0 59.8   1.8 8   1 12.5   0.1
East Cold Springs 9/5/26 68.4   4.4 45.4   4.4 75   11 34   5 7.5   1.7 WSW | 250 26.1   4.7 SW | 235 1611 0.00 0.01 - 1.5   0.0 57.9   1.2 9   2 12.6   0.0
Peavine 9/5/26 65.6   4.8 44.9   5.2 72   5 30   11 14.5   2.0 SW | 235 36.0   12.4 W | 265 2033 0.00 0.06 - 4.2   0.0 59.2   3.7 11   8 13.2   0.1
West Verdi Peak 9/5/26 63.3   5.4 43.0   3.5 77   14 41   13 3.0   0.3 SSE | 168 19.9   0.0 SSE | 147 1754 0.00 0.26 - 6.4   0.1 54.1   3.6 18   25 12.6   0.0
West Verdi 9/5/26 68.2   4.6 44.4   6.7 82   1 36   11 3.9   2.3 SW | 236 24.2   3.6 WSW | 252 1840 0.00 0.09 - 6.0   0.1 58.6   1.4 9   8 12.6   0.0
South Verdi 9/5/26 66.1   4.0 46.8   4.7 70   14 35   10 9.0   5.2 SSW | 195 37.4   5.5 SSW | 208 1708 0.00 0.03 - 10.1   0.1 58.0   1.5 10   5 12.6   0.0
Northwest Reno 9/5/26 69.3   5.7 48.4   4.9 70   5 30   13 14.8   6.8 WNW | 298 42.4   8.8 W | 272 1458 0.00 0.00 - 24.2   0.3 -17.8   0.0 - 12.5   0.0
North Lawton 8/27/26 85.2   2.6 66.7   6.0 35   16 18   2 8.9   1.0 SW | 230 25.0   2.4 SW | 236 1526 0.00 0.00 - - - - 12.6   0.0
West Reno (Mogul) 9/5/26 69.5   4.5 47.3   5.4 70   13 29   13 5.8   1.5 WSW | 241 23.7   7.1 WSW | 237 1629 0.00 0.00 - 19.4   0.1 61.7   1.3 4   1 12.5   0.0
Caughlin (Hunter Lake Trail) 9/5/26 70.6   6.3 46.7   3.9 71   12 22   19 5.8   1.1 SW | 228 33.2   3.5 W | 279 1851 0.00 0.00 - 16.1   0.2 61.6   5.4 10   1 12.6   0.1
ArrowCreek 9/5/26 71.2   5.9 47.4   1.9 70   2 23   14 6.8   2.5 SSW | 211 35.5   4.8 SSW | 213 1723 0.00 0.01 - - - - 12.3   0.1
Tracy 9/5/26 77.1   5.3 48.7   7.0 69   9 23   8 5.8   4.1 WSW | 244 25.1   10.8 NW | 313 1954 0.00 0.00 - 15.5   0.1 64.3   1.8 7   0 12.6   0.1
Virginia Highlands 9/5/26 67.4   5.2 47.7   1.9 71   2 33   5 5.6   1.8 SW | 221 22.7   12.2 WSW | 247 1520 0.00 0.00 - 7.8   0.0 59.3   0.8 8   0 12.6   0.0
Virginia City 9/5/26 68.0   6.1 46.0   4.4 73   11 27   11 6.8   4.3 WSW | 240 26.6   8.2 SSW | 193 1442 0.00 0.00 - 4.7   0.0 60.2   0.8 7   0 12.6   0.0
Six Mile Canyon 9/5/26 76.6   4.5 49.6   6.6 64   12 21   6 6.1   4.3 NNW | 343 26.0   9.7 NW | 306 1739 0.00 0.00 - 12.1   0.1 67.5   0.7 5   1 12.8   0.0
Mt Rose Highway 9/5/26 62.1   6.0 45.1   0.2 71   14 37   16 5.0   0.5 S | 190 28.6   4.8 S | 170 1634 0.00 0.06 - 7.4   0.0 55.2   6.6 12   11 12.5   0.0
Pleasant Valley 9/5/26 71.7   5.3 41.9   4.9 80   9 27   14 6.2   4.7 SW | 218 32.4   2.2 SW | 234 1814 0.00 0.00 - 2.3   0.0 63.0   1.9 9   0 12.5   0.1
New Washoe City 9/5/26 69.9   4.4 45.2   5.5 73   7 30   8 5.7   5.7 WSW | 237 28.8   4.2 WSW | 241 1508 0.00 0.00 - 3.4   0.0 60.2   0.3 9   0 12.5   0.0
Franktown Creek 9/5/26 69.2   4.4 45.0   8.0 79   6 32   12 2.7   1.3 WSW | 243 23.1   2.4 WNW | 297 1602 0.00 0.00 - 7.0   0.0 59.3   0.2 9   0 12.6   0.0
Musgrove Creek 9/5/26 67.1   3.8 49.2   2.7 67   9 34   9 2.8   0.5 SW | 219 18.9   0.4 S | 173 1438 0.00 0.01 - 10.2   0.0 60.2   1.4 9   0 12.6   0.0
East Carson 11/22/24 63.8   0.3 41.7   4.6 85   21 21   9 14.9   6.0 SW | 224 46.6   12.7 S | 171 1835 0.05 0.05 4.48 2.5   0.0 53.9   0.3 9   0 12.6   0.0
Kings Canyon 9/5/26 70.0   6.1 43.6   11.0 75   20 28   12 5.4   0.4 SW | 222 26.3   0.4 SW | 228 1457 0.00 0.00 - 4.1   0.0 61.9   2.4 7   0 12.5   0.0
Carson City (Voltaire Canyon) 9/5/26 72.6   6.7 51.0   4.4 63   6 26   11 9.3   6.6 WSW | 243 29.8   10.6 WSW | 242 1642 0.00 0.00 - 2.8   0.0 -10.9   0.0 - 12.6   0.0
Jacks Valley 9/5/26 71.4   4.3 47.3   7.0 68   13 27   10 6.6   4.9 WNW | 293 29.3   4.3 W | 278 1540 0.00 0.00 - 4.6   0.0 63.5   2.6 5   1 12.6   0.0
Genoa 9/5/26 74.0   5.5 45.5   10.9 75   19 28   9 1.7   0.2 W | 261 14.2   0.5 W | 265 2143 0.00 0.00 - 2.3   0.0 62.3   1.3 9   0 12.3   0.1
South Genoa (Walleys Hot Springs) 9/5/26 75.5   7.6 42.8   8.5 78   16 22   13 5.0   0.2 SW | 235 30.3   5.3 SSE | 168 1514 0.00 0.00 - 4.9   0.0 66.0   4.4 7   0 12.5   0.1
SW Gardnerville (HWY 88) 9/5/26 73.2   6.2 44.1   5.3 79   15 24   14 8.8   4.6 S | 185 31.4   0.5 S | 189 1607 0.00 0.00 - 2.7   0.0 62.8   2.4 9   1 9.6   0.3
Sheridan 9/5/26 73.9   6.1 46.7   3.1 67   7 22   13 5.8   0.5 SW | 216 32.2   7.6 SSW | 194 1456 0.00 0.00 - 1.0   0.0 64.5   3.3 5   0 12.5   0.1
Ruhenstroth 9/5/26 73.5   5.3 50.3   5.0 62   9 24   10 7.7   5.2 SSW | 193 33.8   2.1 WSW | 240 1503 0.00 0.00 - 6.8   0.0 63.3   0.3 7   0 12.6   0.0
Double Spring 9/5/26 71.3   5.0 37.7   10.3 83   17 22   9 5.4   2.9 SSW | 201 23.4   9.4 S | 180 1633 0.00 0.00 - 24.9   0.1 59.2   2.8 8   0 12.5   0.0
North Topaz Lake 9/5/26 75.1   4.2 50.2   5.1 62   12 20   9 5.3   3.7 SW | 222 29.8   1.1 S | 185 1628 0.00 0.00 - 7.7   0.0 65.1   1.1 6   0 12.6   0.0
Wild Oat Mountain 9/5/26 73.1   4.8 49.2   3.2 66   11 22   6 6.0   7.7 SSE | 164 36.9   5.6 SW | 223 1649 0.00 0.00 - 5.7   0.0 61.7   0.3 6   0 12.6   0.0
Smith Valley 9/5/26 78.9   2.5 44.9   11.5 71   20 20   4 4.5   5.6 SW | 231 25.1   16.1 WSW | 250 2121 0.00 0.00 - 2.8   0.0 67.5   3.9 7   0 12.6   0.0
Pine Grove Mountain 9/5/26 66.4   3.6 40.9   2.4 79   7 21   13 5.4   2.2 NE | 41 22.8   3.7 SSW | 192 1700 0.00 0.00 - 6.5   0.2 56.8   1.3 7   1 12.6   0.0
Paradise Hill 9/5/26 74.8   8.2 48.0   5.1 64   10 26   16 5.8   5.4 WNW | 289 28.4   7.8 WNW | 300 1854 0.00 0.00 - 9.8   0.1 67.2   2.6 6   0 12.6   0.0
Winnemucca 9/5/26 75.9   7.9 50.3   1.8 50   19 24   19 6.0   0.1 SSW | 203 26.0   3.5 WNW | 296 1639 0.00 0.00 - 5.6   0.0 68.6   5.1 7   0 12.6   0.0
NE Elko 9/5/26 82.5   3.5 40.4   4.5 75   14 15   5 3.9   1.3 SE | 137 22.2   6.2 SSE | 157 1650 0.00 0.00 - 5.6   0.0 65.2   1.1 4   1 12.5   0.1
North Elko 9/5/26 80.3   3.5 48.9   4.8 67   9 18   4 5.7   1.2 NW | 321 22.5   6.6 SW | 227 1223 0.00 0.00 - 24.6   0.0 66.7   0.1 8   0 12.5   0.0
South Elko 9/5/26 92.4   17.6 48.0   5.1 88   1 18   5 4.6   0.1 WSW | 253 30.2   8.0 SSW | 202 1348 0.00 0.00 - 13.6   0.0 62.8   0.7 7   0 12.6   0.0
Lamoille 9/5/26 79.3   2.0 44.1   2.5 75   10 16   5 5.7   0.6 SSE | 147 29.3   7.4 SW | 224 1813 0.00 0.00 - 6.1   0.1 64.7   0.9 6   1 12.7   0.0
Reid Gardner Sub 9/5/26 100.9   3.2 60.7   0.9 49   11 10   2 6.1   0.9 SSW | 200 28.8   6.3 SSE | 164 1402 0.00 0.00 - 24.6   0.2 86.8   1.3 1   0 12.6   0.0
Corn Creek 9/5/26 94.2   2.3 69.3   1.0 35   3 8   6 11.1   4.1 ESE | 106 33.9   6.1 ENE | 73 1240 0.00 0.00 - 3.1   0.0 84.2   1.1 2   0 12.6   0.0
Lucky Strike 9/5/26 82.4   3.8 61.7   1.2 33   1 6   10 8.3   3.2 S | 180 36.1   2.7 SW | 214 1619 0.00 0.00 - 3.1   0.0 73.3   0.6 2   0 12.6   0.0
Lower Angel Peak 9/5/26 77.3   2.2 53.9   2.0 44   9 8   11 6.6   0.7 SSE | 149 28.7   1.6 SE | 135 1430 0.00 0.00 - 3.1   0.0 69.9   1.2 2   0 12.6   0.0
Angel Peak 9/5/26 66.4   1.5 52.7   0.6 55   18 10   16 14.0   5.1 S | 182 46.7   0.4 S | 174 2207 0.00 0.00 - 2.5   0.1 62.4   1.0 4   0 12.5   0.0
Upper Kyle Canyon 9/5/26 70.1   2.4 57.6   1.1 51   18 11   13 5.4   0.5 NE | 54 34.2   5.1 E | 82 0318 0.00 0.00 - 7.7   0.0 70.2   1.2 4   0 12.6   0.0
Mt Charleston 9/5/26 69.1   1.6 57.4   1.2 50   18 12   11 4.4   0.6 SSE | 164 28.6   0.1 NW | 314 0411 0.00 0.00 - 13.1   0.0 67.3   1.0 10   0 12.6   0.0
Mid Kyle Canyon 9/5/26 77.4   2.2 59.2   0.4 41   7 9   10 7.6   3.0 WSW | 238 31.0   4.0 SW | 227 1647 0.00 0.00 - 5.7   0.0 72.4   0.6 4   0 12.7   0.0
Blue Diamond 9/5/26 89.4   0.3 68.2   2.5 34   1 8   5 7.7   0.9 W | 281 31.6   3.7 W | 277 1719 0.00 0.00 - 1.2   0.0 - - 12.6   0.0
Artesian Sub 9/5/26 100.7   0.5 77.5   0.6 28   3 10   1 5.8   0.3 SSE | 158 22.5   2.6 S | 189 1717 0.00 0.00 - 11.7   0.0 - 0   0 12.6   0.0
North Henderson 9/5/26 100.8   1.0 77.6   1.5 29   2 11   0 6.6   0.9 SSW | 197 24.5   8.9 SSW | 212 1612 0.00 0.00 - 10.5   0.0 94.0   1.6 1   0 12.6   0.0
Sandy Valley 9/5/26 92.2   1.5 68.2   0.2 43   2 14   0 5.2   1.4 WNW | 297 24.7   0.5 WSW | 249 1647 0.00 0.00 - 7.4   0.2 83.1   1.1 4   0 12.6   0.0
Searchlight 9/5/26 91.1   2.7 65.6   0.8 47   3 19   3 7.8   1.0 S | 177 30.6   0.5 SSE | 153 1525 0.00 0.00 - 5.7   0.1 81.8   2.1 2   0 12.5   0.0
Laughlin 9/5/26 105.1   1.7 79.4   0.6 29   4 15   6 6.3   2.0 S | 186 28.8   4.1 SSE | 163 1441 0.00 0.00 - 4.4   0.0 92.8   2.2 4   0 12.7   0.0
31Mission Hills 9/5/26 97.7   3.5 74.1   0.2 31   0 11   1 7.9   2.0 S | 183 30.3   8.2 WSW | 253 1536 0.00 0.00 - 6.3   0.1 89.1   2.6 4   0 13.2   0.0
32 Enterprise Sierra Cliffs 9/5/26 92.4   1.3 68.2   1.4 32   3 9   2 10.8   1.6 SSW | 206 33.0   9.0 SW | 231 1541 0.00 0.00 - 1.3   0.0 85.0   1.0 4   0 13.2   0.0
29 Calico Basin 9/5/26 88.9   1.3 68.9   0.6 27   5 6   6 10.4   0.3 SSW | 202 33.9   7.2 SSW | 206 1505 0.00 0.00 - 2.4   0.0 80.8   0.1 3   0 13.2   0.0
28 Indian Springs 9/5/26 93.1   0.2 63.4   1.5 32   2 5   7 6.6   1.7 SW | 225 39.1   9.2 WSW | 256 1421 0.00 0.00 - 4.4   0.1 80.8   0.3 3   0 13.2   0.0
30 Jean 9/5/26 92.1   0.3 65.9   1.4 35   3 10   0 8.9   0.6 SW | 219 35.3   6.2 W | 268 1518 0.00 0.00 - 4.9   0.1 82.6   0.2 3   0 13.2   0.0
VC Highlands NW 9/5/26 67.2   5.6 44.4   3.9 73   6 29   10 3.4   1.3 SW | 220 20.4   6.7 SSW | 202 1621 0.00 0.00 - 1.5   0.0 56.7   1.3 9   1 13.1   0.0
Glenbrook-Spooner Summit 9/5/26 59.8   4.2 37.2   3.4 89   7 35   15 4.0   1.5 W | 260 22.6   1.2 WSW | 244 1220 0.00 0.00 - 7.7   0.0 51.4   0.9 10   1 13.2   0.0
Hobo Hot Springs 9/5/26 75.6   5.6 41.5   5.3 80   12 22   11 4.5   2.6 WSW | 255 24.3   2.9 WSW | 254 1651 0.00 0.00 - 1.0   0.0 61.7   0.0 8   1 13.2   0.0
Jack Valley Ranch 2 9/5/26 71.6   4.6 48.4   3.9 63   7 26   9 5.2   1.1 WNW | 292 30.7   4.4 SW | 234 1551 0.00 0.00 - 2.1   0.0 64.0   2.1 7   0 13.2   0.0
Genoa North 2 9/5/26 74.2   5.7 44.7   8.0 72   17 24   9 4.3   1.5 WSW | 248 26.0   2.2 SW | 236 1602 0.00 0.00 - 0.8   0.0 63.5   0.9 7   0 13.2   0.0
Mottsville 2 9/5/26 74.5   6.2 43.6   6.5 74   14 19   14 4.4   0.1 SW | 220 23.5   5.0 SSW | 202 1521 0.00 0.00 - 1.4   0.0 63.1   1.2 8   0 13.2   0.0
Kingsbury Village 3 9/5/26 59.7   6.8 38.5   0.2 83   3 37   18 2.2   0.3 N | 349 17.5   2.0 SSW | 210 1445 0.00 0.00 - 3.2   0.0 49.2   3.1 14   1 13.2   0.0
Kingsbury-Benjamin Dr 2 9/5/26 61.2   5.6 41.0   0.6 78   4 36   15 1.5   0.2 WSW | 254 15.6   0.9 SW | 235 1212 0.00 0.00 - 2.8   0.1 51.8   3.0 10   0 13.2   0.0
Smith Valley-Wellington 9/5/26 78.6   3.4 43.6   10.7 77   22 15   9 4.1   4.9 SW | 228 28.1   8.8 SSW | 205 1624 0.00 0.00 - 3.5   0.0 64.9   4.0 7   0 13.2   0.0
Sheridan South 2 9/5/26 72.6   6.8 47.3   4.9 67   10 23   14 7.1   0.7 SSE | 149 32.5   4.5 S | 178 1446 0.00 0.00 - 0.4   0.0 65.0   4.3 8   0 13.2   0.0
Silver Springs 9/5/26 77.5   2.6 47.8   11.0 68   19 21   3 7.0   8.2 N | 355 26.0   16.5 NNW | 328 1830 0.00 0.00 - 4.9   0.0 68.4   0.2 8   0 13.1   0.0
Fernley 9/5/26 75.6   1.1 47.8   6.1 66   2 23   1 6.6   4.2 NW | 304 28.4   8.2 SW | 228 1414 0.00 0.00 - 3.1   0.0 66.6   0.9 7   0 13.1   0.0
Spanish Springs 9/5/26 74.9   4.7 42.3   8.0 79   16 23   8 3.8   0.9 WNW | 293 25.3   0.9 WNW | 301 1832 0.00 0.00 - 10.0   0.1 65.9   0.8 8   0 13.2   0.0
Suttcliffe South 2 9/5/26 70.3   2.0 39.4   11.5 83   6 32   4 4.8   3.1 NNW | 335 17.4   17.6 W | 276 1903 0.00 0.00 - 4.1   0.0 61.7   0.9 10   2 13.1   0.0
Lemmon Valley North 9/5/26 69.6   4.1 34.8   17.4 89   5 27   6 5.8   4.3 SW | 215 24.8   4.8 SW | 231 1438 0.00 0.02 - 2.0   0.0 58.4   0.8 10   3 13.2   0.0
Lemmon Valley NW 3 9/5/26 70.2   4.2 39.6   12.1 83   5 28   5 5.8   4.0 W | 278 23.0   8.3 NW | 308 1628 0.00 0.00 - 1.2   0.0 59.7   2.3 8   0 13.2   0.0
VC Highlands North 9/5/26 68.0   5.4 38.0   7.7 88   16 29   8 4.4   3.2 SW | 232 22.1   5.3 SW | 231 1624 0.00 0.00 - 4.6   0.1 56.0   2.3 9   1 13.2   0.0
Upper Voltaire Cyn 9/5/26 67.9   7.2 48.9   2.2 62   2 29   11 7.2   4.5 SW | 232 28.4   7.4 SW | 236 1546 0.00 0.00 - 1.1   0.0 62.2   5.7 9   0 13.2   0.0
Yerington NW 9/5/26 76.2   1.0 45.2   9.2 75   15 24   3 4.4   4.4 NE | 39 22.1   10.8 WSW | 257 1830 0.00 0.00 - 7.2   0.0 64.7   1.5 10   1 13.2   0.0
Spanish Springs SW 9/5/26 73.1   4.1 44.6   4.9 75   13 23   8 5.2   3.0 W | 260 23.2   3.7 W | 273 2014 0.00 0.00 - 1.4   0.0 62.0   1.2 8   0 13.2   0.0
Cosgrave 2 8/26/26 94.1   3.1 59.4   0.6 40   15 11   2 5.7   1.4 SSW | 205 26.1   5.0 WSW | 249 1345 0.00 0.00 - 4.0   0.1 82.4   4.3 5   1 13.2   0.0
Winnemucca-Grass Valley 2 9/5/26 75.8   6.5 40.3   8.2 83   2 21   18 5.2   2.1 NNW | 330 22.8   3.7 NW | 320 1816 0.00 0.00 - 7.7   0.1 64.1   2.7 9   0 13.1   0.0
Winnemucca-Dutch Flat Rd 9/5/26 74.7   6.8 49.7   1.1 50   22 24   14 6.0   0.0 WSW | 257 26.6   2.9 WNW | 295 1850 0.00 0.00 - 6.1   0.0 65.2   1.6 6   0 13.2   0.0
Paradise Valley 2 9/5/26 73.5   3.0 42.9   5.5 72   2 25   6 4.8   0.4 NW | 315 20.9   6.6 S | 189 1246 0.00 0.00 - 12.5   0.0 62.6   2.3 6   0 13.2   0.0
Golconda 2 9/5/26 76.0   6.3 50.1   0.7 47   25 22   15 6.8   2.4 NW | 318 27.0   2.6 WNW | 303 1825 0.00 0.00 - 1.8   0.0 68.2   5.6 8   0 13.1   0.0
Battle Mountain - South 9/5/26 79.5   2.2 44.6   6.3 77   16 19   3 5.0   2.3 N | 349 22.7   7.8 NW | 323 2013 0.00 0.00 - 9.3   0.0 69.3   0.0 5   1 13.1   0.0
Geiger Summit 9/5/26 64.1   4.5 42.0   5.2 100   0 100   0 5.8   3.0 SSW | 199 22.4   8.1 SSE | 164 1117 0.00 0.00 - 6.1   0.1 55.4   0.1 9   1 13.2   0.0
Combs Canyon 3 9/5/26 73.1   4.7 47.5   6.4 66   10 24   8 6.3   2.3 WSW | 244 29.3   2.4 WSW | 248 1718 0.00 0.00 - 1.0   0.0 63.7   1.5 7   0 13.2   0.0
Clear Creek 9/5/26 67.2   5.7 46.9   3.9 66   5 29   10 7.0   1.1 SW | 235 31.6   1.9 SW | 236 1612 0.00 0.00 - 3.4   0.0 60.9   3.9 9   0 13.1   0.0
Eastlake 2 9/5/26 71.7   4.1 43.6   13.3 76   22 26   9 7.9   1.6 SW | 227 30.1   0.9 WSW | 244 1410 0.00 0.00 - 3.4   0.0 61.8   2.1 8   0 13.3   0.0
Lovelock-Colado 2 9/5/26 77.0   2.7 45.0   0.6 61   7 20   8 6.4   1.0 N | 7 19.6   1.2 SW | 218 1614 0.00 0.00 - - 67.0   2.7 7   0 13.1   0.0
Spanish Springs NW 9/5/26 74.7   4.5 45.8   7.0 74   11 25   5 5.7   0.0 WNW | 300 24.1   1.6 NW | 307 1648 0.00 0.00 - 12.1   0.1 - 7   0 13.0   0.1
Battle Mountain NW 9/5/26 80.5   7.7 47.1   5.5 69   10 18   9 5.0   1.2 WNW | 290 22.8   3.2 WSW | 250 1623 0.00 0.00 - 8.6   0.1 67.2   2.4 6   0 13.2   0.0
Austin 2 9/5/26 74.3   0.1 37.5   0.1 84   11 16   1 7.7   1.9 SSW | 197 28.9   4.2 SSE | 148 1106 0.00 0.11 - 2.5   0.0 61.4   0.6 7   0 13.2   0.0
Elko-Osino 9/5/26 81.8   2.5 39.2   5.0 75   10 14   4 4.8   0.7 W | 262 27.4   4.2 SW | 225 1322 0.00 0.00 - 1.4   0.0 66.0   1.1 7   0 13.2   0.0
Elko-Bill Fishpond 2 9/5/26 78.9   0.6 41.3   6.6 77   13 15   5 4.7   0.2 SSE | 160 23.6   5.7 SE | 134 1850 0.00 0.00 - 3.5   0.0 62.8   1.7 7   1 13.2   0.0
Spring Creek SE 2 9/5/26 80.8   2.5 41.8   2.5 76   12 12   5 5.6   0.9 SSE | 153 29.9   1.5 SSE | 167 1546 0.00 0.00 - 0.2   0.0 62.1   1.8 7   0 13.2   0.0
Spring Creek NW 9/5/26 80.0   1.9 47.8   1.4 66   9 14   4 5.9   1.0 W | 277 25.3   1.9 SSE | 162 1619 0.00 0.00 - 2.2   0.0 64.9   0.0 6   1 13.2   0.0
Elko-Moleen 9/5/26 81.5   2.1 41.2   2.5 74   4 17   1 4.4   0.4 WNW | 283 20.2   1.6 WNW | 289 1828 0.00 0.00 - 6.2   0.0 65.4   1.2 7   0 13.2   0.0
Elko-West 9/5/26 81.5   1.2 39.0   2.6 81   6 17   2 3.8   0.7 NW | 320 29.4   2.4 NW | 323 1423 0.00 0.00 - - 61.2   2.7 6   0 13.2   0.0
Elko-Adobe Creek 9/5/26 74.4   2.0 43.8   2.4 77   6 20   2 6.4   1.3 NNE | 18 26.8   0.9 SSW | 202 1605 0.00 0.00 - 18.5   0.0 62.4   0.7 7   1 13.2   0.0
Tuscarora SW 9/5/26 75.5   5.5 35.8   6.8 94   21 21   7 5.9   1.1 S | 186 32.3   7.1 S | 185 1222 0.00 0.00 - 6.7   0.1 60.1   2.4 8   1 13.2   0.0
Elko-Monument Peak 9/5/26 76.4   2.1 31.4   6.6 82   11 20   1 5.2   1.7 S | 172 23.0   3.5 SW | 221 1251 0.00 0.00 - 4.1   0.0 58.4   1.7 6   1 13.2   0.0
Wild Horse 9/5/26 73.4   5.6 33.9   12.7 91   17 19   9 6.5   1.5 W | 281 28.3   2.4 SSW | 193 1420 0.00 0.00 - 4.5   0.0 58.4   0.9 8   1 13.2   0.1
Max   105.1 79.4 100 100 14.8 - 46.7 - - 0.00 - - 43.5 94.0 19 13.3
Avg   - - - - 5.7 - - - - - - - 6.7 61.4 8 -
Min   58.2 31.4 27 5 0.7 - 8.7 - - 0.00 - - 0.2 -17.8 0 9.6

Fosberg 6Hr Max

Map

Hourly Data

Fosberg 6Hr Max

Map

Hourly Data